createdAt,value
2023-05-21T00:01:08.802Z,98069.45
2023-05-21T00:03:46.397Z,98066.15
2023-05-21T00:06:15.688Z,98060.04
2023-05-21T00:08:49.133Z,98057.50
2023-05-21T00:11:22.688Z,98055.17
2023-05-21T00:13:54.180Z,98051.14
2023-05-21T00:16:25.949Z,98049.70
2023-05-21T00:18:54.821Z,98048.20
2023-05-21T00:21:26.420Z,98049.00
2023-05-21T00:23:56.621Z,98052.31
2023-05-21T00:26:25.281Z,98051.74
2023-05-21T00:28:55.074Z,98047.16
2023-05-21T00:31:24.592Z,98041.05
2023-05-21T00:33:53.220Z,98040.11
2023-05-21T00:36:24.005Z,98041.14
2023-05-21T00:38:53.864Z,98043.34
2023-05-21T00:41:25.555Z,98045.41
2023-05-21T00:43:54.264Z,98048.36
2023-05-21T00:46:23.368Z,98043.27
2023-05-21T00:48:52.980Z,98039.92
2023-05-21T00:51:22.010Z,98036.60
2023-05-21T00:53:53.272Z,98036.52
2023-05-21T00:56:24.064Z,98033.48
2023-05-21T00:58:57.492Z,98032.16
2023-05-21T01:01:29.282Z,98031.30
2023-05-21T01:03:59.275Z,98028.67
2023-05-21T01:06:34.976Z,98024.34
2023-05-21T01:09:07.709Z,98028.06
2023-05-21T01:11:41.059Z,98030.69
2023-05-21T01:14:11.437Z,98030.87
2023-05-21T01:16:42.623Z,98025.59
2023-05-21T01:19:23.814Z,98022.48
2023-05-21T01:21:57.763Z,98015.38
2023-05-21T01:24:26.685Z,98012.61
2023-05-21T01:26:55.277Z,98011.69
2023-05-21T01:29:23.946Z,98007.90
2023-05-21T01:32:10.072Z,98002.62
2023-05-21T01:35:02.638Z,98000.09
2023-05-21T01:37:34.583Z,97996.52
2023-05-21T01:40:14.984Z,97993.11
2023-05-21T01:42:45.047Z,97993.58
2023-05-21T01:45:16.349Z,97997.04
2023-05-21T01:47:49.135Z,97995.71
2023-05-21T01:50:19.327Z,97994.38
2023-05-21T01:53:01.340Z,97994.74
2023-05-21T01:55:31.571Z,98000.09
2023-05-21T01:58:02.571Z,98003.81
2023-05-21T02:00:32.933Z,98001.48
2023-05-21T02:03:02.302Z,98002.28
2023-05-21T02:05:31.064Z,97999.65
2023-05-21T02:08:00.298Z,98003.02
2023-05-21T02:10:29.064Z,98001.58
2023-05-21T02:12:57.746Z,97998.15
2023-05-21T02:15:26.478Z,97994.63
2023-05-21T02:17:55.937Z,97990.21
2023-05-21T02:20:24.564Z,97989.52
2023-05-21T02:22:53.192Z,97989.53
2023-05-21T02:25:21.825Z,97985.94
2023-05-21T02:27:53.902Z,97986.64
2023-05-21T02:30:22.713Z,97990.22
2023-05-21T02:32:51.400Z,97993.23
2023-05-21T02:35:22.801Z,97989.14
2023-05-21T02:37:51.446Z,97986.89
2023-05-21T02:40:20.502Z,97981.72
2023-05-21T02:42:51.883Z,97979.43
2023-05-21T02:45:20.716Z,97972.25
2023-05-21T02:47:49.570Z,97969.38
2023-05-21T02:50:20.302Z,97970.98
2023-05-21T02:52:56.406Z,97977.91
2023-05-21T02:55:25.066Z,97978.13
2023-05-21T02:57:53.633Z,97976.63
2023-05-21T03:00:25.617Z,97978.27
2023-05-21T03:02:54.429Z,97977.83
2023-05-21T03:05:23.446Z,97981.90
2023-05-21T03:07:55.170Z,97983.80
2023-05-21T03:10:23.826Z,97978.23
2023-05-21T03:12:55.390Z,97978.48
2023-05-21T03:15:27.106Z,97976.83
2023-05-21T03:17:59.002Z,97970.98
2023-05-21T03:20:29.181Z,97970.33
2023-05-21T03:22:57.833Z,97969.45
2023-05-21T03:25:26.535Z,97968.69
2023-05-21T03:27:57.514Z,97969.09
2023-05-21T03:30:55.023Z,97969.89
2023-05-21T03:33:33.346Z,97969.23
2023-05-21T03:36:03.147Z,97968.13
2023-05-21T03:38:35.957Z,97968.21
2023-05-21T03:41:07.292Z,97965.84
2023-05-21T03:43:35.928Z,97965.23
2023-05-21T03:46:09.562Z,97967.26
2023-05-21T03:49:00.857Z,97970.20
2023-05-21T03:51:31.982Z,97974.05
2023-05-21T03:54:01.725Z,97974.71
2023-05-21T03:56:33.818Z,97975.54
2023-05-21T03:59:02.527Z,97972.27
2023-05-21T04:01:34.267Z,97973.08
2023-05-21T04:04:03.687Z,97970.75
2023-05-21T04:06:32.502Z,97976.00
2023-05-21T04:09:01.525Z,97980.14
2023-05-21T04:11:30.203Z,97980.23
2023-05-21T04:13:58.857Z,97981.58
2023-05-21T04:16:27.680Z,97981.67
2023-05-21T04:18:56.467Z,97981.09
2023-05-21T04:21:29.749Z,97977.84
2023-05-21T04:24:01.688Z,97980.66
2023-05-21T04:26:45.417Z,97980.42
2023-05-21T04:29:14.924Z,97980.74
2023-05-21T04:31:44.053Z,97980.93
2023-05-21T04:34:18.158Z,97986.17
2023-05-21T04:36:47.010Z,97989.43
2023-05-21T04:39:16.997Z,97985.66
2023-05-21T04:41:45.656Z,97984.73
2023-05-21T04:44:15.302Z,97984.85
2023-05-21T04:46:46.342Z,97981.35
2023-05-21T04:49:15.574Z,97982.22
2023-05-21T04:51:45.255Z,97979.77
2023-05-21T04:54:13.867Z,97977.25
2023-05-21T04:56:42.559Z,97977.23
2023-05-21T04:59:11.193Z,97975.31
2023-05-21T05:01:40.026Z,97970.20
2023-05-21T05:04:08.610Z,97972.50
2023-05-21T05:06:37.880Z,97970.27
2023-05-21T05:09:07.019Z,97966.27
2023-05-21T05:11:35.947Z,97965.23
2023-05-21T05:14:05.309Z,97963.95
2023-05-21T05:16:35.824Z,97963.17
2023-05-21T05:19:04.547Z,97961.45
2023-05-21T05:21:33.393Z,97961.62
2023-05-21T05:24:02.243Z,97957.65
2023-05-21T05:26:31.396Z,97954.30
2023-05-21T05:29:00.018Z,97953.30
2023-05-21T05:31:28.627Z,97953.17
2023-05-21T05:33:57.902Z,97952.02
2023-05-21T05:36:27.356Z,97951.17
2023-05-21T05:38:56.750Z,97947.95
2023-05-21T05:41:25.316Z,97947.88
2023-05-21T05:43:53.903Z,97945.20
2023-05-21T05:46:23.493Z,97943.89
2023-05-21T05:48:52.697Z,97943.27
2023-05-21T05:51:21.393Z,97944.63
2023-05-21T05:53:51.359Z,97937.63
2023-05-21T05:56:21.904Z,97935.98
2023-05-21T05:58:50.896Z,97937.23
2023-05-21T06:01:22.158Z,97933.37
2023-05-21T06:03:54.479Z,97930.33
2023-05-21T06:06:23.114Z,97932.63
2023-05-21T06:08:51.783Z,97933.73
2023-05-21T06:11:23.202Z,97933.74
2023-05-21T06:13:54.640Z,97933.20
2023-05-21T06:16:26.717Z,97929.53
2023-05-21T06:18:59.973Z,97928.66
2023-05-21T06:21:28.766Z,97929.84
2023-05-21T06:23:57.583Z,97928.32
2023-05-21T06:26:26.525Z,97927.38
2023-05-21T06:28:55.194Z,97921.90
2023-05-21T06:31:24.919Z,97916.81
2023-05-21T06:33:55.981Z,97918.00
2023-05-21T06:36:26.957Z,97914.08
2023-05-21T06:38:58.655Z,97911.56
2023-05-21T06:41:28.809Z,97909.36
2023-05-21T06:44:00.358Z,97905.01
2023-05-21T06:46:44.470Z,97905.32
2023-05-21T06:49:17.260Z,97902.94
2023-05-21T06:51:45.883Z,97899.50
2023-05-21T06:54:14.763Z,97896.01
2023-05-21T06:56:43.472Z,97894.14
2023-05-21T06:59:12.239Z,97892.94
2023-05-21T07:01:42.883Z,97887.95
2023-05-21T07:04:11.885Z,97880.27
2023-05-21T07:06:43.336Z,97875.40
2023-05-21T07:09:12.373Z,97873.20
2023-05-21T07:11:41.868Z,97869.23
2023-05-21T07:14:10.724Z,97861.57
2023-05-21T07:16:39.723Z,97861.83
2023-05-21T07:19:09.611Z,97858.77
2023-05-21T07:21:38.977Z,97858.60
2023-05-21T07:24:08.423Z,97858.23
2023-05-21T07:26:39.606Z,97855.20
2023-05-21T07:29:08.240Z,97853.03
2023-05-21T07:31:37.173Z,97854.15
2023-05-21T07:34:05.830Z,97853.24
2023-05-21T07:36:34.570Z,97852.80
2023-05-21T07:39:03.845Z,97856.15
2023-05-21T07:41:33.023Z,97850.55
2023-05-21T07:44:02.550Z,97857.14
2023-05-21T07:46:33.156Z,97856.25
2023-05-21T07:49:01.791Z,97855.31
2023-05-21T07:51:31.326Z,97855.30
2023-05-21T07:54:00.143Z,97853.33
2023-05-21T07:56:33.324Z,97850.63
2023-05-21T07:59:01.915Z,97847.10
2023-05-21T08:01:31.188Z,97844.86
2023-05-21T08:04:02.285Z,97845.46
2023-05-21T08:06:34.204Z,97841.63
2023-05-21T08:09:02.729Z,97845.33
2023-05-21T08:11:31.859Z,97843.96
2023-05-21T08:14:03.471Z,97839.12
2023-05-21T08:16:33.132Z,97835.96
2023-05-21T08:19:01.892Z,97834.88
2023-05-21T08:21:30.994Z,97833.69
2023-05-21T08:24:00.698Z,97830.19
2023-05-21T08:26:29.561Z,97831.61
2023-05-21T08:28:58.694Z,97832.05
2023-05-21T08:31:27.672Z,97831.52
2023-05-21T08:33:56.852Z,97829.49
2023-05-21T08:36:36.364Z,97831.17
2023-05-21T08:39:09.621Z,97832.64
2023-05-21T08:41:41.803Z,97832.70
2023-05-21T08:44:13.213Z,97827.73
2023-05-21T08:46:45.674Z,97826.72
2023-05-21T08:49:16.295Z,97822.70
2023-05-21T08:51:46.018Z,97823.71
2023-05-21T08:54:14.806Z,97820.08
2023-05-21T08:56:49.832Z,97821.69
2023-05-21T08:59:19.611Z,97820.27
2023-05-21T09:01:50.280Z,97819.71
2023-05-21T09:04:29.783Z,97820.33
2023-05-21T09:06:59.525Z,97819.55
2023-05-21T09:09:57.555Z,97816.95
2023-05-21T09:12:27.922Z,97819.07
2023-05-21T09:14:58.811Z,97816.72
2023-05-21T09:17:32.298Z,97817.75
2023-05-21T09:20:16.593Z,97818.02
2023-05-21T09:22:55.921Z,97816.57
2023-05-21T09:25:28.396Z,97817.32
2023-05-21T09:27:59.717Z,97815.77
2023-05-21T09:30:30.766Z,97809.98
2023-05-21T09:33:01.913Z,97812.50
2023-05-21T09:35:30.642Z,97812.65
2023-05-21T09:37:59.207Z,97811.38
2023-05-21T09:40:29.030Z,97810.55
2023-05-21T09:42:57.848Z,97808.13
2023-05-21T09:45:28.924Z,97806.59
2023-05-21T09:47:58.763Z,97806.73
2023-05-21T09:50:28.138Z,97806.09
2023-05-21T09:52:56.774Z,97799.17
2023-05-21T09:55:27.320Z,97795.94
2023-05-21T09:57:55.872Z,97793.90
2023-05-21T10:00:29.227Z,97791.35
2023-05-21T10:03:02.069Z,97790.61
2023-05-21T10:05:31.478Z,97786.69
2023-05-21T10:08:04.765Z,97788.49
2023-05-21T10:10:34.112Z,97787.25
2023-05-21T10:13:08.985Z,97787.48
2023-05-21T10:15:52.044Z,97786.02
2023-05-21T10:18:22.590Z,97783.80
2023-05-21T10:20:52.440Z,97785.30
2023-05-21T10:23:21.197Z,97777.73
2023-05-21T10:25:50.624Z,97774.48
2023-05-21T10:28:20.744Z,97770.11
2023-05-21T10:30:49.776Z,97769.81
2023-05-21T10:33:20.455Z,97764.64
2023-05-21T10:35:53.142Z,97760.85
2023-05-21T10:38:22.034Z,97760.61
2023-05-21T10:40:51.105Z,97761.63
2023-05-21T10:43:45.446Z,97755.25
2023-05-21T10:46:33.925Z,97751.27
2023-05-21T10:49:47.818Z,97747.06
2023-05-21T10:52:48.864Z,97743.41
2023-05-21T10:55:30.497Z,97748.45
2023-05-21T10:58:14.873Z,97743.35
2023-05-21T11:00:44.208Z,97739.78
2023-05-21T11:03:14.367Z,97740.71
2023-05-21T11:05:53.213Z,97735.33
2023-05-21T11:08:26.042Z,97734.16
2023-05-21T11:10:58.307Z,97734.55
2023-05-21T11:13:27.665Z,97732.79
2023-05-21T11:15:59.545Z,97727.34
2023-05-21T11:18:34.155Z,97726.20
2023-05-21T11:21:06.641Z,97732.31
2023-05-21T11:23:58.577Z,97725.62
2023-05-21T11:26:55.595Z,97725.00
2023-05-21T11:29:33.910Z,97723.28
2023-05-21T11:32:06.060Z,97724.48
2023-05-21T11:34:43.044Z,97724.70
2023-05-21T11:37:17.838Z,97720.10
2023-05-21T11:39:47.414Z,97719.51
2023-05-21T11:42:30.648Z,97717.03
2023-05-21T11:45:00.557Z,97710.98
2023-05-21T11:47:30.315Z,97701.05
2023-05-21T11:50:01.399Z,97698.20
2023-05-21T11:52:32.069Z,97695.55
2023-05-21T11:55:00.708Z,97698.36
2023-05-21T11:57:33.028Z,97696.95
2023-05-21T12:00:02.535Z,97695.98
2023-05-21T12:02:50.605Z,97694.14
2023-05-21T12:05:19.710Z,97693.02
2023-05-21T12:07:50.481Z,97689.37
2023-05-21T12:10:24.238Z,97690.52
2023-05-21T12:12:56.836Z,97686.95
2023-05-21T12:15:27.912Z,97685.08
2023-05-21T12:17:57.307Z,97682.27
2023-05-21T12:20:29.310Z,97681.67
2023-05-21T12:22:59.312Z,97682.02
2023-05-21T12:25:28.876Z,97675.01
2023-05-21T12:27:59.108Z,97674.98
2023-05-21T12:30:29.203Z,97671.83
2023-05-21T12:33:04.988Z,97672.41
2023-05-21T12:35:33.660Z,97675.29
2023-05-21T12:38:03.495Z,97672.75
2023-05-21T12:40:37.743Z,97671.75
2023-05-21T12:43:07.781Z,97665.57
2023-05-21T12:45:39.672Z,97663.52
2023-05-21T12:48:09.186Z,97662.10
2023-05-21T12:50:42.503Z,97660.19
2023-05-21T12:53:13.520Z,97659.31
2023-05-21T12:55:42.272Z,97657.57
2023-05-21T12:58:14.434Z,97655.40
2023-05-21T13:00:44.336Z,97653.73
2023-05-21T13:03:15.248Z,97650.02
2023-05-21T13:05:45.107Z,97647.85
2023-05-21T13:08:15.855Z,97646.24
2023-05-21T13:10:44.663Z,97641.59
2023-05-21T13:13:13.324Z,97641.70
2023-05-21T13:15:42.133Z,97638.73
2023-05-21T13:18:12.792Z,97638.51
2023-05-21T13:20:41.523Z,97634.31
2023-05-21T13:23:11.703Z,97633.39
2023-05-21T13:25:40.856Z,97635.64
2023-05-21T13:28:10.751Z,97633.97
2023-05-21T13:30:39.613Z,97634.73
2023-05-21T13:33:08.782Z,97636.80
2023-05-21T13:35:38.341Z,97640.54
2023-05-21T13:38:07.046Z,97642.05
2023-05-21T13:40:39.165Z,97634.34
2023-05-21T13:43:08.193Z,97637.52
2023-05-21T13:45:37.014Z,97635.35
2023-05-21T13:48:06.944Z,97631.84
2023-05-21T13:50:35.817Z,97632.80
2023-05-21T13:53:05.010Z,97632.33
2023-05-21T13:55:36.844Z,97634.54
2023-05-21T13:58:10.237Z,97635.72
2023-05-21T14:00:41.428Z,97634.90
2023-05-21T14:03:11.128Z,97631.62
2023-05-21T14:05:39.970Z,97627.71
2023-05-21T14:08:08.773Z,97626.23
2023-05-21T14:10:37.988Z,97623.76
2023-05-21T14:13:18.419Z,97618.83
2023-05-21T14:15:49.258Z,97612.59
2023-05-21T14:18:18.078Z,97610.77
2023-05-21T14:20:46.783Z,97612.98
2023-05-21T14:23:18.489Z,97616.52
2023-05-21T14:25:47.184Z,97618.27
2023-05-21T14:28:16.308Z,97621.08
2023-05-21T14:30:45.061Z,97622.64
2023-05-21T14:33:17.208Z,97618.48
2023-05-21T14:35:48.301Z,97617.06
2023-05-21T14:38:19.713Z,97613.98
2023-05-21T14:40:48.503Z,97607.28
2023-05-21T14:43:17.531Z,97606.45
2023-05-21T14:45:46.342Z,97604.93
2023-05-21T14:48:15.181Z,97598.30
2023-05-21T14:50:43.856Z,97592.05
2023-05-21T14:53:13.063Z,97588.81
2023-05-21T14:55:42.003Z,97588.58
2023-05-21T14:58:10.947Z,97585.77
2023-05-21T15:00:40.135Z,97586.09
2023-05-21T15:03:08.857Z,97591.63
2023-05-21T15:05:38.032Z,97609.09
2023-05-21T15:08:08.497Z,97644.36
2023-05-21T15:10:37.243Z,97662.52
2023-05-21T15:13:05.923Z,97662.10
2023-05-21T15:15:36.125Z,97653.69
2023-05-21T15:18:05.166Z,97652.92
2023-05-21T15:20:34.034Z,97640.62
2023-05-21T15:25:34.381Z,97617.15
2023-05-21T15:28:03.630Z,97615.58
2023-05-21T15:30:32.406Z,97611.14
2023-05-21T15:33:01.704Z,97605.91
2023-05-21T15:35:30.613Z,97602.39
2023-05-21T15:37:59.493Z,97602.35
2023-05-21T15:40:28.345Z,97601.13
2023-05-21T15:42:57.420Z,97596.48
2023-05-21T15:45:26.209Z,97595.48
2023-05-21T15:47:55.094Z,97598.19
2023-05-21T15:50:23.949Z,97605.71
2023-05-21T15:52:53.460Z,97609.08
2023-05-21T15:55:22.786Z,97613.83
2023-05-21T15:57:51.500Z,97614.44
2023-05-21T16:00:20.392Z,97612.66
2023-05-21T16:02:49.997Z,97611.15
2023-05-21T16:05:19.187Z,97612.82
2023-05-21T16:07:47.920Z,97616.73
2023-05-21T16:10:16.853Z,97614.48
2023-05-21T16:12:45.521Z,97605.96
2023-05-21T16:15:14.195Z,97599.84
2023-05-21T16:17:43.039Z,97597.44
2023-05-21T16:20:12.743Z,97598.10
2023-05-21T16:22:42.137Z,97599.14
2023-05-21T16:25:10.821Z,97596.96
2023-05-21T16:27:39.607Z,97596.59
2023-05-21T16:30:09.143Z,97600.61
2023-05-21T16:32:39.824Z,97609.43
2023-05-21T16:35:08.937Z,97611.55
2023-05-21T16:37:37.560Z,97610.58
2023-05-21T16:40:07.259Z,97612.70
2023-05-21T16:42:35.738Z,97619.21
2023-05-21T16:45:04.569Z,97622.86
2023-05-21T16:47:33.718Z,97617.29
2023-05-21T16:50:02.315Z,97619.80
2023-05-21T16:52:30.904Z,97625.20
2023-05-21T16:54:59.966Z,97627.05
2023-05-21T16:57:28.427Z,97629.79
2023-05-21T16:59:56.996Z,97628.45
2023-05-21T17:02:25.808Z,97625.00
2023-05-21T17:04:54.401Z,97625.22
2023-05-21T17:07:23.082Z,97622.82
2023-05-21T17:09:51.593Z,97624.67
2023-05-21T17:12:20.425Z,97628.21
2023-05-21T17:14:48.971Z,97624.48
2023-05-21T17:17:18.882Z,97627.67
2023-05-21T17:19:47.503Z,97630.52
2023-05-21T17:22:16.506Z,97634.09
2023-05-21T17:24:45.226Z,97635.54
2023-05-21T17:27:14.046Z,97638.02
2023-05-21T17:29:42.834Z,97645.67
2023-05-21T17:32:12.521Z,97648.41
2023-05-21T17:34:41.128Z,97648.77
2023-05-21T17:37:09.708Z,97649.55
2023-05-21T17:39:38.536Z,97649.81
2023-05-21T17:42:07.507Z,97652.61
2023-05-21T17:44:36.059Z,97652.02
2023-05-21T17:47:04.955Z,97653.35
2023-05-21T17:49:33.809Z,97650.64
2023-05-21T17:52:04.696Z,97653.26
2023-05-21T17:54:34.338Z,97655.04
2023-05-21T17:57:03.134Z,97655.91
2023-05-21T17:59:31.904Z,97655.39
2023-05-21T18:02:04.105Z,97655.81
2023-05-21T18:04:32.885Z,97654.32
2023-05-21T18:07:01.901Z,97652.61
2023-05-21T18:09:33.774Z,97653.64
2023-05-21T18:12:05.986Z,97654.09
2023-05-21T18:14:34.775Z,97656.95
2023-05-21T18:17:04.254Z,97655.64
2023-05-21T18:19:34.078Z,97655.11
2023-05-21T18:22:05.595Z,97654.64
2023-05-21T18:24:34.407Z,97652.67
2023-05-21T18:27:04.064Z,97650.85
2023-05-21T18:29:33.018Z,97653.77
2023-05-21T18:32:02.618Z,97654.86
2023-05-21T18:34:31.415Z,97656.88
2023-05-21T18:37:00.802Z,97659.44
2023-05-21T18:39:29.372Z,97656.50
2023-05-21T18:42:12.177Z,97660.41
2023-05-21T18:44:41.418Z,97665.05
2023-05-21T18:47:10.013Z,97666.61
2023-05-21T18:49:39.055Z,97669.09
2023-05-21T18:52:08.009Z,97675.24
2023-05-21T18:54:36.528Z,97675.95
2023-05-21T18:57:05.272Z,97678.31
2023-05-21T18:59:33.922Z,97683.67
2023-05-21T19:02:03.652Z,97681.35
2023-05-21T19:04:32.316Z,97682.27
2023-05-21T19:07:03.076Z,97684.52
2023-05-21T19:09:31.692Z,97688.90
2023-05-21T19:12:01.232Z,97692.96
2023-05-21T19:14:29.832Z,97693.95
2023-05-21T19:16:58.327Z,97696.41
2023-05-21T19:19:27.015Z,97698.01
2023-05-21T19:21:55.669Z,97702.41
2023-05-21T19:24:24.252Z,97704.10
2023-05-21T19:26:52.775Z,97704.91
2023-05-21T19:29:21.907Z,97705.48
2023-05-21T19:31:50.467Z,97710.73
2023-05-21T19:34:19.187Z,97717.29
2023-05-21T19:36:53.312Z,97722.54
2023-05-21T19:39:22.552Z,97730.27
2023-05-21T19:41:53.066Z,97737.08
2023-05-21T19:44:21.638Z,97742.05
2023-05-21T19:46:50.275Z,97743.54
2023-05-21T19:49:20.204Z,97748.15
2023-05-21T19:51:49.599Z,97750.56
2023-05-21T19:54:18.878Z,97746.73
2023-05-21T19:56:47.504Z,97741.29
2023-05-21T19:59:19.004Z,97749.95
2023-05-21T20:01:47.456Z,97761.70
2023-05-21T20:04:16.494Z,97760.14
2023-05-21T20:06:45.285Z,97756.62
2023-05-21T20:09:14.012Z,97757.16
2023-05-21T20:11:43.211Z,97755.08
2023-05-21T20:14:11.757Z,97754.96
2023-05-21T20:16:42.546Z,97756.13
2023-05-21T20:19:11.386Z,97758.96
2023-05-21T20:21:39.952Z,97760.44
2023-05-21T20:24:08.899Z,97762.66
2023-05-21T20:26:37.460Z,97761.27
2023-05-21T20:29:07.152Z,97758.36
2023-05-21T20:31:36.265Z,97758.45
2023-05-21T20:37:56.087Z,97763.52
2023-05-21T20:40:23.344Z,97762.99
2023-05-21T20:42:52.908Z,97765.98
2023-05-21T20:45:21.519Z,97765.45
2023-05-21T20:47:49.269Z,97764.84
2023-05-21T20:50:25.350Z,97765.00
2023-05-21T20:52:52.478Z,97762.27
2023-05-21T20:55:22.101Z,97759.08
2023-05-21T20:57:49.368Z,97764.84
2023-05-21T21:00:16.764Z,97760.55
2023-05-21T21:02:45.323Z,97760.67
2023-05-21T21:05:12.560Z,97764.40
2023-05-21T21:07:39.850Z,97764.92
2023-05-21T21:10:07.588Z,97766.27
2023-05-21T21:12:34.760Z,97765.81
2023-05-21T21:15:02.041Z,97768.05
2023-05-21T21:17:29.193Z,97773.33
2023-05-21T21:19:56.439Z,97772.02
2023-05-21T21:22:23.671Z,97773.31
2023-05-21T21:24:50.858Z,97773.83
2023-05-21T21:27:20.513Z,97775.92
2023-05-21T21:29:47.664Z,97777.55
2023-05-21T21:32:14.959Z,97780.45
2023-05-21T21:34:45.321Z,97780.75
2023-05-21T21:37:16.323Z,97782.95
2023-05-21T21:39:43.588Z,97782.02
2023-05-21T21:42:10.750Z,97779.77
2023-05-21T21:44:38.880Z,97782.42
2023-05-21T21:47:06.199Z,97784.55
2023-05-21T21:49:33.921Z,97787.86
2023-05-21T21:52:01.350Z,97786.76
2023-05-21T21:54:28.484Z,97787.33
2023-05-21T21:56:55.564Z,97790.73
2023-05-21T21:59:22.767Z,97786.48
2023-05-21T22:01:50.038Z,97792.45
2023-05-21T22:04:17.320Z,97792.98
2023-05-21T22:06:47.870Z,97793.63
2023-05-21T22:09:16.557Z,97794.68
2023-05-21T22:11:44.045Z,97792.30
2023-05-21T22:14:11.244Z,97792.66
2023-05-21T22:16:38.521Z,97788.38
2023-05-21T22:19:05.805Z,97785.33
2023-05-21T22:21:33.522Z,97786.04
2023-05-21T22:24:00.661Z,97787.66
2023-05-21T22:26:27.818Z,97785.55
2023-05-21T22:28:59.642Z,97785.38
2023-05-21T22:31:26.914Z,97786.64
2023-05-21T22:33:54.200Z,97790.18
2023-05-21T22:36:22.143Z,97786.70
2023-05-21T22:38:49.377Z,97788.97
2023-05-21T22:41:16.814Z,97792.83
2023-05-21T22:43:44.067Z,97794.16
2023-05-21T22:46:11.332Z,97791.91
2023-05-21T22:48:41.392Z,97791.02
2023-05-21T22:51:09.189Z,97792.56
2023-05-21T22:53:36.480Z,97794.16
2023-05-21T22:56:03.774Z,97794.42
2023-05-21T22:58:33.243Z,97803.10
2023-05-21T23:01:00.559Z,97801.26
2023-05-21T23:03:27.904Z,97800.08
2023-05-21T23:05:55.187Z,97798.50
2023-05-21T23:08:22.417Z,97796.57
2023-05-21T23:10:49.834Z,97793.27
2023-05-21T23:13:19.321Z,97790.61
2023-05-21T23:15:47.902Z,97788.38
2023-05-21T23:18:15.206Z,97790.75
2023-05-21T23:20:43.281Z,97791.35
2023-05-21T23:23:10.861Z,97796.81
2023-05-21T23:25:40.607Z,97794.61
2023-05-21T23:28:07.762Z,97797.91
2023-05-21T23:30:35.045Z,97796.98
2023-05-21T23:33:02.521Z,97790.80
2023-05-21T23:35:29.979Z,97788.54
2023-05-21T23:37:57.146Z,97785.64
2023-05-21T23:40:24.399Z,97783.47
2023-05-21T23:42:51.783Z,97783.10
2023-05-21T23:45:18.996Z,97788.75
2023-05-21T23:47:46.252Z,97786.59
2023-05-21T23:50:13.533Z,97781.45
2023-05-21T23:52:40.986Z,97777.47
2023-05-21T23:55:11.100Z,97776.18
2023-05-21T23:57:38.275Z,97775.13
